Time,TemperatureF,DewpointF,PressureIn,WindDirection,WindDirectionDegrees,WindSpeedMPH,WindSpeedGustMPH,Humidity,HourlyPrecipIn,Conditions,Clouds,dailyrainin,SoftwareType,DateUTC
2013-04-01 00:00:00,46.8,46.0,29.67,SSE,148,4.0,8.0,97,0.01,,,0.14,meteohub,2013-04-01 04:00:00,
2013-04-01 00:01:00,46.9,46.2,29.67,SE,140,2.0,8.0,97,0.01,,,0.14,meteohub,2013-04-01 04:01:00,
2013-04-01 00:06:00,47.1,46.4,29.67,SSE,153,3.0,8.0,97,0.01,,,0.14,meteohub,2013-04-01 04:06:00,
2013-04-01 00:11:00,47.1,46.4,29.66,SSW,195,3.0,8.0,97,0.01,,,0.14,meteohub,2013-04-01 04:11:00,
2013-04-01 00:13:00,47.1,46.4,29.66,SSE,155,1.0,8.0,97,0.01,,,0.14,meteohub,2013-04-01 04:13:00,
2013-04-01 00:18:00,47.1,46.4,29.66,SSE,148,0.0,8.0,97,0.01,,,0.14,meteohub,2013-04-01 04:18:00,
2013-04-01 00:23:00,47.1,46.4,29.66,SSW,203,0.0,8.0,97,0.00,,,0.14,meteohub,2013-04-01 04:23:00,
2013-04-01 00:28:00,47.1,46.4,29.65,SSE,167,3.0,8.0,97,0.00,,,0.14,meteohub,2013-04-01 04:28:00,
2013-04-01 00:33:00,47.5,46.8,29.65,WSW,241,3.0,5.0,97,0.00,,,0.14,meteohub,2013-04-01 04:33:00,
2013-04-01 00:38:00,47.5,46.8,29.65,South,184,3.0,5.0,97,0.00,,,0.14,meteohub,2013-04-01 04:38:00,
2013-04-01 00:43:00,47.7,46.9,29.65,WSW,248,5.0,7.0,97,0.00,,,0.14,meteohub,2013-04-01 04:43:00,
2013-04-01 00:48:00,47.7,46.9,29.65,West,267,3.0,11.0,97,0.00,,,0.14,meteohub,2013-04-01 04:48:00,
2013-04-01 00:53:00,47.7,47.1,29.65,West,280,3.0,11.0,98,0.00,,,0.14,meteohub,2013-04-01 04:53:00,
2013-04-01 00:58:00,47.1,46.4,29.66,West,275,5.0,9.0,97,0.00,,,0.14,meteohub,2013-04-01 04:58:00,
2013-04-01 01:03:00,46.8,46.0,29.65,West,269,3.0,11.0,97,0.00,,,0.14,meteohub,2013-04-01 05:03:00,
2013-04-01 01:08:00,46.4,45.7,29.66,SW,234,6.0,11.0,97,0.00,,,0.14,meteohub,2013-04-01 05:08:00,
2013-04-01 01:13:00,46.0,45.3,29.66,WNW,284,5.0,11.0,97,0.00,,,0.14,meteohub,2013-04-01 05:13:00,
2013-04-01 01:18:00,45.3,44.6,29.66,West,262,5.0,9.0,97,0.00,,,0.14,meteohub,2013-04-01 05:18:00,
2013-04-01 01:23:00,44.8,44.1,29.65,West,280,5.0,8.0,97,0.00,,,0.14,meteohub,2013-04-01 05:23:00,
2013-04-01 01:28:00,44.4,43.7,29.65,WNW,284,5.0,7.0,97,0.00,,,0.14,meteohub,2013-04-01 05:28:00,
2013-04-01 01:33:00,44.2,43.5,29.65,West,275,4.0,7.0,97,0.00,,,0.14,meteohub,2013-04-01 05:33:00,
2013-04-01 01:38:00,44.1,43.3,29.66,WNW,282,6.0,6.0,97,0.00,,,0.14,meteohub,2013-04-01 05:38:00,
2013-04-01 01:43:00,44.1,43.3,29.66,West,264,5.0,6.0,97,0.00,,,0.14,meteohub,2013-04-01 05:43:00,
2013-04-01 01:49:00,43.9,43.2,29.66,WNW,287,6.0,7.0,97,0.00,,,0.14,meteohub,2013-04-01 05:49:00,
2013-04-01 01:54:00,43.5,42.8,29.67,West,281,7.0,7.0,97,0.00,,,0.14,meteohub,2013-04-01 05:54:00,
2013-04-01 01:59:00,43.5,42.8,29.67,West,274,7.0,8.0,97,0.00,,,0.14,meteohub,2013-04-01 05:59:00,
2013-04-01 02:04:00,43.5,42.8,29.67,West,276,5.0,8.0,97,0.00,,,0.14,meteohub,2013-04-01 06:04:00,
2013-04-01 02:09:00,43.3,42.6,29.67,West,280,5.0,8.0,97,0.00,,,0.14,meteohub,2013-04-01 06:09:00,
2013-04-01 02:14:00,43.3,42.6,29.68,West,280,6.0,8.0,97,0.00,,,0.14,meteohub,2013-04-01 06:14:00,
2013-04-01 02:19:00,43.2,42.4,29.68,West,266,7.0,8.0,97,0.00,,,0.14,meteohub,2013-04-01 06:19:00,
2013-04-01 02:24:00,43.2,42.6,29.68,WNW,285,5.0,8.0,98,0.00,,,0.14,meteohub,2013-04-01 06:24:00,
2013-04-01 02:29:00,43.2,42.6,29.68,West,266,6.0,8.0,98,0.00,,,0.14,meteohub,2013-04-01 06:29:00,
2013-04-01 02:34:00,43.0,42.4,29.67,WNW,288,7.0,8.0,98,0.00,,,0.14,meteohub,2013-04-01 06:34:00,
2013-04-01 02:39:00,43.0,42.4,29.68,WNW,288,8.0,8.0,98,0.00,,,0.14,meteohub,2013-04-01 06:39:00,
2013-04-01 02:44:00,42.8,42.3,29.68,WNW,285,6.0,9.0,98,0.00,,,0.14,meteohub,2013-04-01 06:44:00,
2013-04-01 02:49:00,43.0,42.4,29.68,West,278,6.0,9.0,98,0.00,,,0.14,meteohub,2013-04-01 06:49:00,
2013-04-01 02:54:00,43.0,42.4,29.68,West,266,6.0,10.0,98,0.00,,,0.14,meteohub,2013-04-01 06:54:00,
2013-04-01 02:59:00,43.2,42.6,29.69,West,280,5.0,10.0,98,0.00,,,0.14,meteohub,2013-04-01 06:59:00,
2013-04-01 03:04:00,43.0,42.4,29.69,West,275,6.0,9.0,98,0.00,,,0.14,meteohub,2013-04-01 07:04:00,
2013-04-01 03:09:00,43.0,42.4,29.70,WNW,288,6.0,9.0,98,0.00,,,0.14,meteohub,2013-04-01 07:09:00,
2013-04-01 03:14:00,43.0,42.4,29.70,West,281,7.0,10.0,98,0.00,,,0.14,meteohub,2013-04-01 07:14:00,
2013-04-01 03:19:00,42.8,42.3,29.70,WNW,283,6.0,10.0,98,0.00,,,0.14,meteohub,2013-04-01 07:19:00,
2013-04-01 03:24:00,42.6,42.1,29.70,West,271,7.0,10.0,98,0.00,,,0.14,meteohub,2013-04-01 07:24:00,
2013-04-01 03:29:00,42.6,42.1,29.70,WNW,291,7.0,9.0,98,0.00,,,0.14,meteohub,2013-04-01 07:29:00,
2013-04-01 03:34:00,42.6,42.1,29.70,West,274,5.0,8.0,98,0.00,,,0.14,meteohub,2013-04-01 07:34:00,
2013-04-01 03:39:00,42.6,42.1,29.70,West,271,7.0,9.0,98,0.00,,,0.14,meteohub,2013-04-01 07:39:00,
2013-04-01 03:44:00,42.6,42.1,29.70,WNW,284,7.0,9.0,98,0.00,,,0.14,meteohub,2013-04-01 07:44:00,
2013-04-01 03:49:00,42.6,42.1,29.70,WNW,287,6.0,9.0,98,0.00,,,0.14,meteohub,2013-04-01 07:49:00,
2013-04-01 03:54:00,42.6,42.1,29.70,WNW,284,7.0,9.0,98,0.00,,,0.14,meteohub,2013-04-01 07:54:00,
2013-04-01 03:59:00,42.6,42.1,29.70,WNW,287,6.0,9.0,98,0.00,,,0.14,meteohub,2013-04-01 07:59:00,
2013-04-01 04:04:00,42.4,41.9,29.71,WNW,284,7.0,8.0,98,0.00,,,0.14,meteohub,2013-04-01 08:04:00,
2013-04-01 04:09:00,42.4,41.9,29.71,WNW,288,5.0,8.0,98,0.00,,,0.14,meteohub,2013-04-01 08:09:00,
2013-04-01 04:14:00,42.4,41.9,29.71,WNW,290,4.0,8.0,98,0.00,,,0.14,meteohub,2013-04-01 08:14:00,
2013-04-01 04:19:00,42.4,41.9,29.71,WNW,283,5.0,8.0,98,0.00,,,0.14,meteohub,2013-04-01 08:19:00,
2013-04-01 04:24:00,42.4,41.9,29.71,WNW,294,6.0,8.0,98,0.00,,,0.14,meteohub,2013-04-01 08:24:00,
2013-04-01 04:29:00,42.4,41.9,29.72,West,262,4.0,7.0,98,0.00,,,0.14,meteohub,2013-04-01 08:29:00,
2013-04-01 04:34:00,42.3,41.7,29.72,WNW,287,4.0,7.0,98,0.00,,,0.14,meteohub,2013-04-01 08:34:00,
2013-04-01 04:39:00,42.3,41.7,29.72,West,276,4.0,7.0,98,0.00,,,0.14,meteohub,2013-04-01 08:39:00,
2013-04-01 04:44:00,42.4,41.9,29.72,West,276,4.0,7.0,98,0.00,,,0.14,meteohub,2013-04-01 08:44:00,
2013-04-01 04:49:00,42.3,41.7,29.72,West,281,4.0,7.0,98,0.00,,,0.14,meteohub,2013-04-01 08:49:00,
2013-04-01 04:54:00,42.3,41.7,29.71,WNW,290,6.0,7.0,98,0.00,,,0.14,meteohub,2013-04-01 08:54:00,
2013-04-01 04:59:00,42.3,41.7,29.71,WNW,288,6.0,7.0,98,0.00,,,0.14,meteohub,2013-04-01 08:59:00,
2013-04-01 05:04:00,42.1,41.5,29.71,West,281,6.0,7.0,98,0.00,,,0.14,meteohub,2013-04-01 09:04:00,
2013-04-01 05:09:00,42.1,41.5,29.71,West,281,6.0,7.0,98,0.00,,,0.14,meteohub,2013-04-01 09:09:00,
2013-04-01 05:14:00,42.1,41.5,29.71,WNW,285,5.0,7.0,98,0.00,,,0.14,meteohub,2013-04-01 09:14:00,
2013-04-01 05:19:00,42.1,41.5,29.71,WNW,282,4.0,7.0,98,0.00,,,0.14,meteohub,2013-04-01 09:19:00,
2013-04-01 05:24:00,41.9,41.4,29.71,WNW,289,4.0,7.0,98,0.00,,,0.14,meteohub,2013-04-01 09:24:00,
2013-04-01 05:30:00,41.7,41.2,29.71,WNW,283,5.0,6.0,98,0.00,,,0.14,meteohub,2013-04-01 09:30:00,
2013-04-01 05:35:00,41.7,41.2,29.71,WNW,282,5.0,6.0,98,0.00,,,0.14,meteohub,2013-04-01 09:35:00,
2013-04-01 05:40:00,41.5,41.0,29.71,WNW,285,5.0,6.0,98,0.00,,,0.14,meteohub,2013-04-01 09:40:00,
2013-04-01 05:45:00,41.5,41.0,29.71,WNW,285,5.0,6.0,98,0.00,,,0.14,meteohub,2013-04-01 09:45:00,
2013-04-01 05:50:00,41.7,41.2,29.71,WNW,285,6.0,6.0,98,0.00,,,0.14,meteohub,2013-04-01 09:50:00,
2013-04-01 05:55:00,41.9,41.4,29.72,WNW,287,5.0,7.0,98,0.00,,,0.14,meteohub,2013-04-01 09:55:00,
2013-04-01 06:00:00,42.1,41.5,29.72,West,281,5.0,7.0,98,0.00,,,0.14,meteohub,2013-04-01 10:00:00,
2013-04-01 06:05:00,42.3,41.7,29.73,West,278,4.0,7.0,98,0.00,,,0.14,meteohub,2013-04-01 10:05:00,
2013-04-01 06:10:00,42.4,41.9,29.73,WNW,297,5.0,7.0,98,0.00,,,0.14,meteohub,2013-04-01 10:10:00,
2013-04-01 06:15:00,42.6,42.1,29.73,WNW,285,4.0,9.0,98,0.00,,,0.14,meteohub,2013-04-01 10:15:00,
2013-04-01 06:20:00,42.6,42.1,29.73,WNW,287,6.0,9.0,98,0.00,,,0.14,meteohub,2013-04-01 10:20:00,
2013-04-01 06:25:00,41.5,41.5,29.73,West,271,5.0,8.0,100,0.00,,,0.14,meteohub,2013-04-01 10:25:00,
2013-04-01 06:30:00,41.5,41.5,29.73,West,271,5.0,8.0,100,0.00,,,0.14,meteohub,2013-04-01 10:30:00,
2013-04-01 06:35:00,41.5,41.5,29.73,North,-999,-999.0,8.0,100,0.00,,,0.14,meteohub,2013-04-01 10:35:00,
2013-04-01 07:39:00,43.9,43.3,29.73,North,-999,-999.0,-999.0,98,-99.99,,,0.14,meteohub,2013-04-01 11:39:00,
2013-04-01 07:44:00,43.7,43.2,29.73,North,-999,-999.0,-999.0,98,-99.99,,,0.14,meteohub,2013-04-01 11:44:00,
2013-04-01 07:49:00,43.7,43.2,29.73,WNW,283,4.0,-999.0,98,0.00,,,0.14,meteohub,2013-04-01 11:49:00,
2013-04-01 07:54:00,43.5,43.0,29.73,West,277,4.0,6.0,98,0.00,,,0.14,meteohub,2013-04-01 11:54:00,
2013-04-01 07:59:00,43.5,43.0,29.73,West,280,3.0,6.0,98,0.00,,,0.14,meteohub,2013-04-01 11:59:00,
2013-04-01 08:04:00,43.5,43.0,29.73,WNW,283,2.0,6.0,98,0.00,,,0.14,meteohub,2013-04-01 12:04:00,
2013-04-01 08:09:00,43.7,43.2,29.73,West,276,3.0,6.0,98,0.00,,,0.14,meteohub,2013-04-01 12:09:00,
2013-04-01 08:14:00,44.2,43.7,29.73,West,276,2.0,7.0,98,0.00,,,0.14,meteohub,2013-04-01 12:14:00,
2013-04-01 08:19:00,44.4,43.9,29.73,WSW,241,5.0,8.0,98,0.00,,,0.14,meteohub,2013-04-01 12:19:00,
2013-04-01 08:25:00,45.0,44.4,29.73,West,273,1.0,9.0,98,0.00,,,0.14,meteohub,2013-04-01 12:25:00,
2013-04-01 08:30:00,45.3,44.8,29.73,WSW,252,4.0,10.0,98,0.00,,,0.14,meteohub,2013-04-01 12:30:00,
2013-04-01 08:35:00,45.5,45.0,29.73,West,263,4.0,10.0,98,0.00,,,0.14,meteohub,2013-04-01 12:35:00,
2013-04-01 08:40:00,45.7,45.1,29.73,WSW,246,3.0,9.0,98,0.00,,,0.14,meteohub,2013-04-01 12:40:00,
2013-04-01 08:45:00,45.5,44.8,29.73,West,277,5.0,9.0,97,0.00,,,0.14,meteohub,2013-04-01 12:45:00,
2013-04-01 08:50:00,45.1,44.4,29.73,West,276,3.0,9.0,97,0.00,,,0.14,meteohub,2013-04-01 12:50:00,
2013-04-01 08:55:00,45.1,44.4,29.73,WNW,288,4.0,8.0,97,0.00,,,0.14,meteohub,2013-04-01 12:55:00,
2013-04-01 09:00:00,45.1,44.4,29.73,WNW,284,4.0,7.0,97,0.00,,,0.15,meteohub,2013-04-01 13:00:00,
2013-04-01 09:05:00,45.1,44.4,29.73,West,277,4.0,6.0,97,0.01,,,0.15,meteohub,2013-04-01 13:05:00,
2013-04-01 09:10:00,45.0,44.2,29.74,West,271,3.0,6.0,97,0.01,,,0.15,meteohub,2013-04-01 13:10:00,
2013-04-01 09:15:00,45.0,44.2,29.73,West,274,3.0,6.0,97,0.01,,,0.15,meteohub,2013-04-01 13:15:00,
2013-04-01 09:20:00,45.3,44.6,29.73,West,271,2.0,5.0,97,0.01,,,0.15,meteohub,2013-04-01 13:20:00,
2013-04-01 09:25:00,45.7,45.0,29.73,WSW,248,3.0,5.0,97,0.01,,,0.15,meteohub,2013-04-01 13:25:00,
2013-04-01 09:30:00,45.7,45.0,29.73,West,274,3.0,5.0,97,0.01,,,0.15,meteohub,2013-04-01 13:30:00,
2013-04-01 09:35:00,45.9,44.8,29.73,West,268,1.0,5.0,96,0.01,,,0.15,meteohub,2013-04-01 13:35:00,
2013-04-01 09:40:00,45.9,44.8,29.73,West,269,2.0,5.0,96,0.01,,,0.15,meteohub,2013-04-01 13:40:00,
2013-04-01 09:45:00,45.9,44.8,29.73,West,273,2.0,5.0,96,0.01,,,0.15,meteohub,2013-04-01 13:45:00,
2013-04-01 09:50:00,46.6,45.5,29.73,West,274,2.0,4.0,96,0.01,,,0.15,meteohub,2013-04-01 13:50:00,
2013-04-01 09:55:00,47.1,46.0,29.73,SW,232,6.0,6.0,96,0.00,,,0.15,meteohub,2013-04-01 13:55:00,
2013-04-01 10:00:00,47.8,46.8,29.73,West,262,1.0,6.0,96,0.00,,,0.15,meteohub,2013-04-01 14:00:00,
2013-04-01 10:05:00,48.6,47.5,29.73,West,263,4.0,6.0,96,0.00,,,0.15,meteohub,2013-04-01 14:05:00,
2013-04-01 10:10:00,49.3,48.2,29.73,West,264,3.0,6.0,96,0.00,,,0.15,meteohub,2013-04-01 14:10:00,
2013-04-01 10:15:00,49.3,47.7,29.73,West,273,3.0,7.0,94,0.00,,,0.15,meteohub,2013-04-01 14:15:00,
2013-04-01 10:20:00,49.1,47.1,29.73,West,262,3.0,7.0,93,0.00,,,0.15,meteohub,2013-04-01 14:20:00,
2013-04-01 10:25:00,49.1,47.1,29.73,WSW,246,1.0,7.0,93,0.00,,,0.15,meteohub,2013-04-01 14:25:00,
2013-04-01 10:30:00,49.5,47.3,29.73,WNW,283,2.0,8.0,92,0.00,,,0.15,meteohub,2013-04-01 14:30:00,
2013-04-01 10:35:00,49.6,47.5,29.73,West,281,3.0,8.0,92,0.00,,,0.15,meteohub,2013-04-01 14:35:00,
2013-04-01 10:40:00,49.8,47.7,29.73,West,281,3.0,8.0,92,0.00,,,0.15,meteohub,2013-04-01 14:40:00,
2013-04-01 10:45:00,50.0,47.8,29.73,WNW,291,5.0,6.0,92,0.00,,,0.15,meteohub,2013-04-01 14:45:00,
2013-04-01 10:51:00,50.5,48.0,29.73,West,273,1.0,5.0,91,0.00,,,0.15,meteohub,2013-04-01 14:51:00,
2013-04-01 10:56:00,51.1,48.2,29.73,WSW,254,3.0,5.0,90,0.00,,,0.15,meteohub,2013-04-01 14:56:00,
2013-04-01 11:01:00,52.0,48.2,29.72,West,276,2.0,6.0,87,0.00,,,0.15,meteohub,2013-04-01 15:01:00,
2013-04-01 11:06:00,52.0,47.3,29.72,West,270,2.0,6.0,84,0.00,,,0.15,meteohub,2013-04-01 15:06:00,
2013-04-01 11:11:00,52.3,46.8,29.72,WNW,287,3.0,6.0,81,0.00,,,0.15,meteohub,2013-04-01 15:11:00,
2013-04-01 11:16:00,52.3,48.0,29.72,SE,128,4.0,6.0,85,0.00,,,0.15,meteohub,2013-04-01 15:16:00,
2013-04-01 11:21:00,54.7,50.9,29.71,SSE,148,4.0,7.0,87,0.00,,,0.15,meteohub,2013-04-01 15:21:00,
2013-04-01 11:26:00,55.8,50.4,29.71,WSW,240,3.0,9.0,82,0.00,,,0.15,meteohub,2013-04-01 15:26:00,
2013-04-01 11:31:00,56.1,50.7,29.71,SSE,150,5.0,11.0,82,0.00,,,0.15,meteohub,2013-04-01 15:31:00,
2013-04-01 11:36:00,56.3,49.8,29.72,SE,139,4.0,13.0,79,0.00,,,0.15,meteohub,2013-04-01 15:36:00,
2013-04-01 11:42:00,56.1,50.0,29.71,WSW,255,3.0,13.0,80,0.00,,,0.15,meteohub,2013-04-01 15:42:00,
2013-04-01 11:47:00,56.7,49.8,29.71,SSE,152,7.0,13.0,78,0.00,,,0.15,meteohub,2013-04-01 15:47:00,
2013-04-01 11:52:00,56.7,49.8,29.71,South,183,7.0,13.0,78,0.00,,,0.15,meteohub,2013-04-01 15:52:00,
2013-04-01 11:57:00,56.8,49.3,29.70,SSW,201,6.0,13.0,76,0.00,,,0.15,meteohub,2013-04-01 15:57:00,
2013-04-01 12:02:00,56.8,48.9,29.70,SW,221,3.0,13.0,75,0.00,,,0.15,meteohub,2013-04-01 16:02:00,
2013-04-01 12:07:00,57.2,49.6,29.70,SW,225,4.0,13.0,76,0.00,,,0.15,meteohub,2013-04-01 16:07:00,
2013-04-01 12:12:00,57.7,49.8,29.71,WSW,240,7.0,13.0,75,0.00,,,0.15,meteohub,2013-04-01 16:12:00,
2013-04-01 12:17:00,57.7,49.1,29.70,SE,124,4.0,11.0,73,0.00,,,0.15,meteohub,2013-04-01 16:17:00,
2013-04-01 12:22:00,57.7,48.7,29.70,WSW,252,3.0,11.0,72,0.00,,,0.15,meteohub,2013-04-01 16:22:00,
2013-04-01 12:27:00,58.3,49.3,29.70,SW,224,6.0,13.0,72,0.00,,,0.15,meteohub,2013-04-01 16:27:00,
2013-04-01 12:32:00,57.9,49.3,29.70,SE,135,4.0,13.0,73,0.00,,,0.15,meteohub,2013-04-01 16:32:00,
2013-04-01 12:37:00,57.7,48.4,29.70,South,173,9.0,12.0,71,0.00,,,0.15,meteohub,2013-04-01 16:37:00,
2013-04-01 12:42:00,57.2,48.6,29.70,SE,133,4.0,12.0,73,0.00,,,0.15,meteohub,2013-04-01 16:42:00,
2013-04-01 12:47:00,57.0,48.4,29.69,SE,134,5.0,12.0,73,0.00,,,0.15,meteohub,2013-04-01 16:47:00,
2013-04-01 12:52:00,57.6,48.9,29.69,WSW,249,5.0,14.0,73,0.00,,,0.15,meteohub,2013-04-01 16:52:00,
2013-04-01 12:57:00,57.0,48.4,29.69,SSE,154,3.0,14.0,73,0.00,,,0.15,meteohub,2013-04-01 16:57:00,
2013-04-01 13:02:00,57.0,48.0,29.69,West,276,4.0,13.0,72,0.00,,,0.15,meteohub,2013-04-01 17:02:00,
2013-04-01 13:07:00,56.1,47.7,29.68,SE,127,3.0,14.0,73,0.00,,,0.15,meteohub,2013-04-01 17:07:00,
2013-04-01 13:13:00,55.9,47.8,29.68,SSW,207,12.0,14.0,74,0.00,,,0.15,meteohub,2013-04-01 17:13:00,
2013-04-01 13:18:00,55.8,47.7,29.68,West,275,3.0,17.0,74,0.00,,,0.15,meteohub,2013-04-01 17:18:00,
2013-04-01 13:23:00,55.8,48.0,29.68,SW,217,5.0,17.0,75,0.00,,,0.15,meteohub,2013-04-01 17:23:00,
2013-04-01 13:28:00,55.4,48.0,29.68,South,181,2.0,17.0,76,0.00,,,0.15,meteohub,2013-04-01 17:28:00,
2013-04-01 13:33:00,55.6,47.5,29.68,SE,145,5.0,15.0,74,0.00,,,0.15,meteohub,2013-04-01 17:33:00,
2013-04-01 13:38:00,55.8,47.7,29.68,SW,217,15.0,15.0,74,0.00,,,0.15,meteohub,2013-04-01 17:38:00,
2013-04-01 13:43:00,56.3,48.6,29.68,WSW,243,5.0,19.0,75,0.00,,,0.15,meteohub,2013-04-01 17:43:00,
2013-04-01 13:48:00,56.8,48.6,29.68,WNW,294,5.0,19.0,74,0.00,,,0.15,meteohub,2013-04-01 17:48:00,
2013-04-01 13:53:00,56.8,47.8,29.68,SSW,193,7.0,19.0,72,0.00,,,0.15,meteohub,2013-04-01 17:53:00,
2013-04-01 13:58:00,57.4,48.4,29.67,West,277,4.0,13.0,72,0.00,,,0.15,meteohub,2013-04-01 17:58:00,
2013-04-01 14:03:00,58.3,48.9,29.67,SSW,197,3.0,13.0,71,0.00,,,0.15,meteohub,2013-04-01 18:03:00,
2013-04-01 14:08:00,58.6,48.6,29.67,WSW,245,1.0,13.0,69,0.00,,,0.15,meteohub,2013-04-01 18:08:00,
2013-04-01 14:13:00,59.4,48.4,29.66,NW,323,7.0,14.0,67,0.00,,,0.15,meteohub,2013-04-01 18:13:00,
2013-04-01 14:18:00,59.7,48.7,29.67,ESE,120,7.0,14.0,67,0.00,,,0.15,meteohub,2013-04-01 18:18:00,
2013-04-01 14:23:00,59.7,48.0,29.66,SW,214,13.0,14.0,65,0.00,,,0.15,meteohub,2013-04-01 18:23:00,
2013-04-01 14:28:00,59.9,48.6,29.66,WNW,285,3.0,20.0,66,0.00,,,0.15,meteohub,2013-04-01 18:28:00,
2013-04-01 14:33:00,60.1,48.2,29.66,South,188,14.0,20.0,65,0.00,,,0.15,meteohub,2013-04-01 18:33:00,
2013-04-01 14:38:00,59.7,48.4,29.66,SSE,162,4.0,20.0,66,0.00,,,0.15,meteohub,2013-04-01 18:38:00,
2013-04-01 14:43:00,59.5,47.8,29.66,SSW,205,4.0,14.0,65,0.00,,,0.15,meteohub,2013-04-01 18:43:00,
2013-04-01 14:48:00,59.5,47.8,29.65,SE,134,7.0,16.0,65,0.00,,,0.15,meteohub,2013-04-01 18:48:00,
2013-04-01 14:53:00,59.2,47.8,29.65,SSW,207,9.0,16.0,66,0.00,,,0.15,meteohub,2013-04-01 18:53:00,
2013-04-01 14:58:00,58.8,47.8,29.65,SSE,155,4.0,16.0,67,0.00,,,0.15,meteohub,2013-04-01 18:58:00,
2013-04-01 15:03:00,58.3,47.3,29.65,West,274,3.0,16.0,67,0.00,,,0.15,meteohub,2013-04-01 19:03:00,
2013-04-01 15:08:00,58.3,47.8,29.65,South,179,8.0,19.0,68,0.00,,,0.15,meteohub,2013-04-01 19:08:00,
2013-04-01 15:13:00,58.6,47.3,29.64,SE,138,6.0,19.0,66,0.00,,,0.15,meteohub,2013-04-01 19:13:00,
2013-04-01 15:18:00,58.5,47.5,29.64,SSE,158,1.0,19.0,67,0.00,,,0.15,meteohub,2013-04-01 19:18:00,
2013-04-01 15:23:00,59.0,48.0,29.64,SW,231,4.0,16.0,67,0.00,,,0.15,meteohub,2013-04-01 19:23:00,
2013-04-01 15:28:00,59.2,47.8,29.64,WSW,246,5.0,14.0,66,0.00,,,0.15,meteohub,2013-04-01 19:28:00,
2013-04-01 15:33:00,59.2,47.8,29.64,SW,222,5.0,15.0,66,0.00,,,0.15,meteohub,2013-04-01 19:33:00,
2013-04-01 15:38:00,59.4,47.1,29.63,SSW,207,6.0,15.0,64,0.00,,,0.15,meteohub,2013-04-01 19:38:00,
2013-04-01 15:44:00,59.5,47.3,29.63,WNW,300,3.0,15.0,64,0.00,,,0.15,meteohub,2013-04-01 19:44:00,
2013-04-01 15:49:00,59.5,47.3,29.64,South,172,6.0,16.0,64,0.00,,,0.15,meteohub,2013-04-01 19:49:00,
2013-04-01 15:54:00,59.0,46.4,29.64,SW,225,4.0,16.0,63,0.00,,,0.15,meteohub,2013-04-01 19:54:00,
2013-04-01 15:59:00,57.9,45.9,29.64,SW,214,14.0,22.0,64,0.00,,,0.15,meteohub,2013-04-01 19:59:00,
2013-04-01 16:04:00,56.8,46.0,29.65,SW,224,6.0,22.0,67,0.00,,,0.15,meteohub,2013-04-01 20:04:00,
2013-04-01 16:09:00,55.2,46.4,29.66,West,275,8.0,20.0,72,0.00,,,0.15,meteohub,2013-04-01 20:09:00,
2013-04-01 16:14:00,52.0,45.7,29.67,NW,309,7.0,20.0,79,0.00,,,0.15,meteohub,2013-04-01 20:14:00,
2013-04-01 16:19:00,49.8,45.5,29.66,West,276,7.0,20.0,85,0.01,,,0.16,meteohub,2013-04-01 20:19:00,
2013-04-01 16:24:00,49.3,46.2,29.65,West,273,4.0,15.0,89,0.01,,,0.16,meteohub,2013-04-01 20:24:00,
2013-04-01 16:29:00,48.4,45.5,29.66,West,263,3.0,12.0,90,0.03,,,0.18,meteohub,2013-04-01 20:29:00,
2013-04-01 16:34:00,47.5,45.0,29.66,WSW,255,2.0,12.0,91,0.03,,,0.18,meteohub,2013-04-01 20:34:00,
2013-04-01 16:39:00,47.1,45.0,29.67,SW,233,4.0,7.0,92,0.03,,,0.18,meteohub,2013-04-01 20:39:00,
2013-04-01 16:44:00,47.5,45.3,29.68,WSW,248,6.0,9.0,92,0.03,,,0.18,meteohub,2013-04-01 20:44:00,
2013-04-01 16:49:00,46.9,44.4,29.68,West,278,5.0,11.0,91,0.04,,,0.19,meteohub,2013-04-01 20:49:00,
2013-04-01 16:54:00,46.0,43.3,29.68,WNW,283,5.0,11.0,90,0.04,,,0.19,meteohub,2013-04-01 20:54:00,
2013-04-01 16:59:00,45.3,42.6,29.68,WNW,298,4.0,11.0,90,0.04,,,0.19,meteohub,2013-04-01 20:59:00,
2013-04-01 17:04:00,45.1,43.0,29.68,WNW,300,8.0,8.0,92,0.04,,,0.19,meteohub,2013-04-01 21:04:00,
2013-04-01 17:09:00,45.3,43.2,29.68,WNW,297,6.0,8.0,92,0.04,,,0.19,meteohub,2013-04-01 21:09:00,
2013-04-01 17:14:00,45.3,43.2,29.68,West,278,9.0,10.0,92,0.05,,,0.20,meteohub,2013-04-01 21:14:00,
2013-04-01 17:19:00,45.3,43.2,29.70,WNW,288,6.0,10.0,92,0.04,,,0.20,meteohub,2013-04-01 21:19:00,
2013-04-01 17:24:00,45.1,42.6,29.70,WNW,285,7.0,10.0,91,0.02,,,0.20,meteohub,2013-04-01 21:24:00,
2013-04-01 17:29:00,45.1,42.6,29.71,WNW,288,7.0,10.0,91,0.02,,,0.20,meteohub,2013-04-01 21:29:00,
2013-04-01 17:34:00,44.8,42.1,29.71,NW,307,9.0,10.0,90,0.02,,,0.20,meteohub,2013-04-01 21:34:00,
2013-04-01 17:39:00,44.6,41.5,29.71,WNW,301,7.0,10.0,89,0.02,,,0.20,meteohub,2013-04-01 21:39:00,
2013-04-01 17:44:00,44.6,40.6,29.71,WNW,302,11.0,15.0,86,0.01,,,0.20,meteohub,2013-04-01 21:44:00,
2013-04-01 17:49:00,44.4,40.8,29.71,NW,316,14.0,18.0,87,0.01,,,0.20,meteohub,2013-04-01 21:49:00,
2013-04-01 17:54:00,44.4,39.6,29.72,NW,307,8.0,18.0,83,0.01,,,0.20,meteohub,2013-04-01 21:54:00,
2013-04-01 18:00:00,44.1,38.8,29.72,WNW,297,10.0,22.0,82,0.01,,,0.20,meteohub,2013-04-01 22:00:00,
2013-04-01 18:05:00,44.1,38.8,29.72,WNW,302,7.0,22.0,82,0.01,,,0.20,meteohub,2013-04-01 22:05:00,
2013-04-01 18:10:00,44.1,38.7,29.73,WNW,290,10.0,20.0,81,0.00,,,0.20,meteohub,2013-04-01 22:10:00,
2013-04-01 18:15:00,44.1,38.7,29.73,NW,326,11.0,17.0,81,0.00,,,0.20,meteohub,2013-04-01 22:15:00,
2013-04-01 18:20:00,43.9,38.5,29.73,NW,311,13.0,18.0,81,0.00,,,0.20,meteohub,2013-04-01 22:20:00,
2013-04-01 18:25:00,43.9,38.7,29.74,WNW,293,10.0,18.0,82,0.00,,,0.20,meteohub,2013-04-01 22:25:00,
2013-04-01 18:30:00,43.7,38.8,29.75,NW,308,10.0,18.0,83,0.00,,,0.20,meteohub,2013-04-01 22:30:00,
2013-04-01 18:35:00,43.5,39.0,29.75,WNW,294,7.0,16.0,84,0.00,,,0.20,meteohub,2013-04-01 22:35:00,
2013-04-01 18:40:00,43.3,38.8,29.75,NW,308,9.0,16.0,84,0.00,,,0.20,meteohub,2013-04-01 22:40:00,
2013-04-01 18:45:00,43.2,37.8,29.75,NW,314,8.0,16.0,81,0.00,,,0.20,meteohub,2013-04-01 22:45:00,
2013-04-01 18:50:00,43.0,37.9,29.75,NW,311,6.0,16.0,82,0.00,,,0.20,meteohub,2013-04-01 22:50:00,
2013-04-01 18:55:00,43.2,37.8,29.75,NW,321,8.0,12.0,81,0.00,,,0.21,meteohub,2013-04-01 22:55:00,
2013-04-01 19:00:00,43.3,37.6,29.74,NW,318,7.0,12.0,80,0.01,,,0.21,meteohub,2013-04-01 23:00:00,
2013-04-01 19:05:00,43.5,37.0,29.75,NW,308,6.0,12.0,78,0.01,,,0.21,meteohub,2013-04-01 23:05:00,
2013-04-01 19:10:00,43.3,38.3,29.76,NNW,328,8.0,10.0,82,0.01,,,0.21,meteohub,2013-04-01 23:10:00,
2013-04-01 19:15:00,43.2,38.7,29.77,NW,325,6.0,10.0,84,0.01,,,0.21,meteohub,2013-04-01 23:15:00,
2013-04-01 19:20:00,43.0,38.5,29.77,NNW,344,10.0,10.0,84,0.01,,,0.21,meteohub,2013-04-01 23:20:00,
2013-04-01 19:25:00,42.8,38.7,29.78,North,353,9.0,12.0,85,0.01,,,0.21,meteohub,2013-04-01 23:25:00,
2013-04-01 19:30:00,42.6,38.7,29.78,NNW,342,8.0,12.0,86,0.01,,,0.21,meteohub,2013-04-01 23:30:00,
2013-04-01 19:35:00,42.4,38.5,29.78,NW,314,7.0,12.0,86,0.01,,,0.21,meteohub,2013-04-01 23:35:00,
2013-04-01 19:40:00,42.3,38.7,29.78,North,354,6.0,11.0,87,0.01,,,0.21,meteohub,2013-04-01 23:40:00,
2013-04-01 19:45:00,42.3,38.3,29.78,NW,326,8.0,11.0,86,0.01,,,0.21,meteohub,2013-04-01 23:45:00,
2013-04-01 19:50:00,42.3,38.3,29.78,North,357,9.0,14.0,86,0.01,,,0.21,meteohub,2013-04-01 23:50:00,
2013-04-01 19:55:00,42.3,38.3,29.78,North,351,11.0,15.0,86,0.00,,,0.21,meteohub,2013-04-01 23:55:00,
2013-04-01 20:00:00,42.1,37.9,29.78,NNE,23,11.0,15.0,85,0.00,,,0.21,meteohub,2013-04-02 00:00:00,
2013-04-01 20:05:00,41.9,37.8,29.78,NNE,18,12.0,17.0,85,0.00,,,0.00,meteohub,2013-04-02 00:05:00,
2013-04-01 20:10:00,41.7,37.6,29.78,North,1,7.0,17.0,85,0.00,,,0.00,meteohub,2013-04-02 00:10:00,
2013-04-01 20:15:00,41.5,37.6,29.79,North,354,12.0,17.0,86,0.00,,,0.00,meteohub,2013-04-02 00:15:00,
2013-04-01 20:20:00,41.5,37.4,29.78,North,11,17.0,17.0,85,0.00,,,0.00,meteohub,2013-04-02 00:20:00,
2013-04-01 20:25:00,41.5,37.0,29.79,North,351,12.0,17.0,84,0.00,,,0.00,meteohub,2013-04-02 00:25:00,
2013-04-01 20:30:00,41.4,37.2,29.79,NNW,338,8.0,17.0,85,0.00,,,0.00,meteohub,2013-04-02 00:30:00,
2013-04-01 20:35:00,41.4,37.2,29.80,North,5,13.0,17.0,85,0.00,,,0.00,meteohub,2013-04-02 00:35:00,
2013-04-01 20:40:00,41.4,37.2,29.80,North,11,9.0,15.0,85,0.00,,,0.00,meteohub,2013-04-02 00:40:00,
2013-04-01 20:45:00,41.4,37.2,29.81,North,8,9.0,15.0,85,0.00,,,0.00,meteohub,2013-04-02 00:45:00,
2013-04-01 20:50:00,41.4,37.2,29.81,NNW,348,9.0,15.0,85,0.00,,,0.00,meteohub,2013-04-02 00:50:00,
2013-04-01 20:55:00,41.2,37.4,29.82,NNW,342,8.0,14.0,86,0.00,,,0.00,meteohub,2013-04-02 00:55:00,
2013-04-01 21:00:00,41.2,37.0,29.82,NNW,330,9.0,13.0,85,0.00,,,0.00,meteohub,2013-04-02 01:00:00,
2013-04-01 21:05:00,41.2,37.0,29.83,North,354,9.0,13.0,85,0.00,,,0.00,meteohub,2013-04-02 01:05:00,
2013-04-01 21:10:00,41.2,37.4,29.83,NW,316,6.0,12.0,86,0.00,,,0.00,meteohub,2013-04-02 01:10:00,
2013-04-01 21:16:00,41.0,37.2,29.83,NNW,348,12.0,12.0,86,0.00,,,0.00,meteohub,2013-04-02 01:16:00,
2013-04-01 21:21:00,41.0,36.9,29.84,NNW,330,8.0,12.0,85,0.00,,,0.00,meteohub,2013-04-02 01:21:00,
2013-04-01 21:26:00,41.0,36.5,29.84,North,359,10.0,12.0,84,0.00,,,0.00,meteohub,2013-04-02 01:26:00,
2013-04-01 21:31:00,41.0,36.3,29.85,NNW,335,7.0,12.0,83,0.00,,,0.00,meteohub,2013-04-02 01:31:00,
2013-04-01 21:36:00,41.2,36.1,29.85,North,356,8.0,14.0,82,0.00,,,0.00,meteohub,2013-04-02 01:36:00,
2013-04-01 21:41:00,41.2,35.8,29.85,NNW,345,11.0,14.0,81,0.00,,,0.00,meteohub,2013-04-02 01:41:00,
2013-04-01 21:46:00,41.2,35.4,29.85,North,355,9.0,14.0,80,0.00,,,0.00,meteohub,2013-04-02 01:46:00,
2013-04-01 21:51:00,41.2,35.2,29.86,North,356,12.0,14.0,79,0.00,,,0.00,meteohub,2013-04-02 01:51:00,
2013-04-01 21:56:00,41.2,34.5,29.86,NNE,19,8.0,16.0,77,0.00,,,0.00,meteohub,2013-04-02 01:56:00,
2013-04-01 22:01:00,41.0,34.3,29.86,NW,325,9.0,16.0,77,0.00,,,0.00,meteohub,2013-04-02 02:01:00,
2013-04-01 22:06:00,40.8,34.5,29.87,NNW,341,9.0,16.0,78,0.00,,,0.00,meteohub,2013-04-02 02:06:00,
2013-04-01 22:12:00,40.8,34.5,29.87,North,354,8.0,14.0,78,0.00,,,0.00,meteohub,2013-04-02 02:12:00,
2013-04-01 22:17:00,40.8,34.2,29.87,North,1,7.0,14.0,77,0.00,,,0.00,meteohub,2013-04-02 02:17:00,
2013-04-01 22:22:00,40.8,34.5,29.87,North,1,12.0,12.0,78,0.00,,,0.00,meteohub,2013-04-02 02:22:00,
2013-04-01 22:27:00,40.8,34.9,29.87,NNW,338,7.0,12.0,79,0.00,,,0.00,meteohub,2013-04-02 02:27:00,
2013-04-01 22:32:00,40.6,34.9,29.88,NW,321,7.0,12.0,80,0.00,,,0.00,meteohub,2013-04-02 02:32:00,
2013-04-01 22:37:00,40.6,35.6,29.88,NNW,328,6.0,12.0,82,0.00,,,0.00,meteohub,2013-04-02 02:37:00,
2013-04-01 22:42:00,40.6,33.3,29.88,NW,316,9.0,10.0,75,0.00,,,0.00,meteohub,2013-04-02 02:42:00,
2013-04-01 22:47:00,41.0,27.3,29.87,NW,307,11.0,16.0,58,0.00,,,0.00,meteohub,2013-04-02 02:47:00,
2013-04-01 22:52:00,41.2,28.4,29.88,WNW,297,10.0,16.0,60,0.00,,,0.00,meteohub,2013-04-02 02:52:00,
2013-04-01 22:57:00,41.0,26.4,29.88,NW,316,11.0,16.0,56,0.00,,,0.00,meteohub,2013-04-02 02:57:00,
2013-04-01 23:02:00,40.8,26.4,29.88,NNW,328,8.0,16.0,56,0.00,,,0.00,meteohub,2013-04-02 03:02:00,
2013-04-01 23:07:00,40.8,29.7,29.88,NW,314,7.0,14.0,64,0.00,,,0.00,meteohub,2013-04-02 03:07:00,
2013-04-01 23:12:00,40.6,29.5,29.88,NNW,332,10.0,14.0,64,0.00,,,0.00,meteohub,2013-04-02 03:12:00,
2013-04-01 23:17:00,40.1,27.3,29.89,North,353,13.0,15.0,60,0.00,,,0.00,meteohub,2013-04-02 03:17:00,
2013-04-01 23:22:00,39.9,28.4,29.89,NNW,348,13.0,17.0,63,0.00,,,0.00,meteohub,2013-04-02 03:22:00,
2013-04-01 23:27:00,39.9,28.4,29.89,NW,304,10.0,17.0,63,0.00,,,0.00,meteohub,2013-04-02 03:27:00,
2013-04-01 23:32:00,39.7,27.9,29.89,NNW,333,12.0,17.0,62,0.00,,,0.00,meteohub,2013-04-02 03:32:00,
2013-04-01 23:37:00,39.9,29.5,29.89,NW,307,5.0,16.0,66,0.00,,,0.00,meteohub,2013-04-02 03:37:00,
2013-04-01 23:42:00,39.7,27.0,29.89,NW,305,8.0,14.0,60,0.00,,,0.00,meteohub,2013-04-02 03:42:00,
2013-04-01 23:47:00,39.6,26.4,29.89,WNW,300,10.0,14.0,59,0.00,,,0.00,meteohub,2013-04-02 03:47:00,
2013-04-01 23:52:00,39.7,29.3,29.90,NNW,347,7.0,14.0,66,0.00,,,0.00,meteohub,2013-04-02 03:52:00,
2013-04-01 23:57:00,39.6,25.5,29.89,NNW,328,11.0,17.0,57,0.00,,,0.00,meteohub,2013-04-02 03:57:00,